sensor_id;sensor_type;location;lat;lon;timestamp;P1;durP1;ratioP1;P2;durP2;ratioP2
57848;SDS011;68645;44.762;21.516;2023-04-24T00:00:15;11.77;;;7.25;;
57848;SDS011;68645;44.762;21.516;2023-04-24T00:02:43;13.02;;;7.22;;
57848;SDS011;68645;44.762;21.516;2023-04-24T00:05:13;10.32;;;6.85;;
57848;SDS011;68645;44.762;21.516;2023-04-24T00:07:40;11.43;;;7.40;;
57848;SDS011;68645;44.762;21.516;2023-04-24T00:10:07;15.73;;;7.60;;
57848;SDS011;68645;44.762;21.516;2023-04-24T00:12:33;12.93;;;7.00;;
57848;SDS011;68645;44.762;21.516;2023-04-24T00:14:59;9.93;;;6.15;;
57848;SDS011;68645;44.762;21.516;2023-04-24T00:17:25;14.13;;;7.40;;
57848;SDS011;68645;44.762;21.516;2023-04-24T00:19:52;9.15;;;6.53;;
57848;SDS011;68645;44.762;21.516;2023-04-24T00:24:49;11.02;;;7.05;;
57848;SDS011;68645;44.762;21.516;2023-04-24T00:27:15;12.90;;;7.65;;
57848;SDS011;68645;44.762;21.516;2023-04-24T00:29:41;10.43;;;6.80;;
57848;SDS011;68645;44.762;21.516;2023-04-24T00:32:07;9.18;;;6.40;;
57848;SDS011;68645;44.762;21.516;2023-04-24T00:34:33;9.73;;;6.85;;
57848;SDS011;68645;44.762;21.516;2023-04-24T00:37:00;9.30;;;6.32;;
57848;SDS011;68645;44.762;21.516;2023-04-24T00:39:26;9.55;;;5.82;;
57848;SDS011;68645;44.762;21.516;2023-04-24T00:41:52;9.27;;;5.63;;
57848;SDS011;68645;44.762;21.516;2023-04-24T00:44:19;8.48;;;6.00;;
57848;SDS011;68645;44.762;21.516;2023-04-24T00:46:45;11.18;;;6.05;;
57848;SDS011;68645;44.762;21.516;2023-04-24T00:49:12;10.98;;;7.03;;
57848;SDS011;68645;44.762;21.516;2023-04-24T00:51:39;11.52;;;6.30;;
57848;SDS011;68645;44.762;21.516;2023-04-24T00:54:10;9.48;;;5.63;;
57848;SDS011;68645;44.762;21.516;2023-04-24T00:56:36;8.55;;;6.10;;
57848;SDS011;68645;44.762;21.516;2023-04-24T00:59:03;11.10;;;6.65;;
57848;SDS011;68645;44.762;21.516;2023-04-24T01:01:29;12.10;;;7.30;;
57848;SDS011;68645;44.762;21.516;2023-04-24T01:03:55;10.90;;;6.47;;
57848;SDS011;68645;44.762;21.516;2023-04-24T01:06:23;9.07;;;6.80;;
57848;SDS011;68645;44.762;21.516;2023-04-24T01:08:53;12.52;;;7.65;;
57848;SDS011;68645;44.762;21.516;2023-04-24T01:11:20;13.50;;;8.30;;
57848;SDS011;68645;44.762;21.516;2023-04-24T01:13:47;16.75;;;9.68;;
57848;SDS011;68645;44.762;21.516;2023-04-24T01:16:14;17.90;;;10.57;;
57848;SDS011;68645;44.762;21.516;2023-04-24T01:18:42;12.98;;;8.50;;
57848;SDS011;68645;44.762;21.516;2023-04-24T01:21:09;9.18;;;6.55;;
57848;SDS011;68645;44.762;21.516;2023-04-24T01:23:35;9.57;;;6.90;;
57848;SDS011;68645;44.762;21.516;2023-04-24T01:26:01;11.93;;;7.22;;
57848;SDS011;68645;44.762;21.516;2023-04-24T01:28:28;11.07;;;6.57;;
57848;SDS011;68645;44.762;21.516;2023-04-24T01:30:54;9.15;;;6.75;;
57848;SDS011;68645;44.762;21.516;2023-04-24T01:33:20;9.07;;;7.00;;
57848;SDS011;68645;44.762;21.516;2023-04-24T01:35:47;9.73;;;6.55;;
57848;SDS011;68645;44.762;21.516;2023-04-24T01:38:13;7.70;;;6.03;;
57848;SDS011;68645;44.762;21.516;2023-04-24T01:40:40;9.55;;;6.60;;
57848;SDS011;68645;44.762;21.516;2023-04-24T01:43:06;11.75;;;7.65;;
57848;SDS011;68645;44.762;21.516;2023-04-24T01:45:32;11.07;;;7.50;;
57848;SDS011;68645;44.762;21.516;2023-04-24T01:47:58;19.38;;;9.90;;
57848;SDS011;68645;44.762;21.516;2023-04-24T01:50:26;15.15;;;8.63;;
57848;SDS011;68645;44.762;21.516;2023-04-24T01:52:52;12.13;;;7.97;;
57848;SDS011;68645;44.762;21.516;2023-04-24T01:55:18;14.18;;;8.85;;
57848;SDS011;68645;44.762;21.516;2023-04-24T01:57:44;10.63;;;7.95;;
57848;SDS011;68645;44.762;21.516;2023-04-24T02:00:10;12.40;;;6.78;;
57848;SDS011;68645;44.762;21.516;2023-04-24T02:02:37;13.98;;;7.35;;
57848;SDS011;68645;44.762;21.516;2023-04-24T02:05:08;10.52;;;7.55;;
57848;SDS011;68645;44.762;21.516;2023-04-24T02:07:34;9.57;;;6.85;;
57848;SDS011;68645;44.762;21.516;2023-04-24T02:10:01;8.82;;;6.65;;
57848;SDS011;68645;44.762;21.516;2023-04-24T02:12:27;9.02;;;6.28;;
57848;SDS011;68645;44.762;21.516;2023-04-24T02:14:53;15.15;;;10.38;;
57848;SDS011;68645;44.762;21.516;2023-04-24T02:17:19;14.02;;;9.93;;
57848;SDS011;68645;44.762;21.516;2023-04-24T02:19:45;13.98;;;12.05;;
57848;SDS011;68645;44.762;21.516;2023-04-24T02:22:11;11.88;;;7.47;;
57848;SDS011;68645;44.762;21.516;2023-04-24T02:24:38;15.73;;;14.18;;
57848;SDS011;68645;44.762;21.516;2023-04-24T02:27:04;10.25;;;8.35;;
57848;SDS011;68645;44.762;21.516;2023-04-24T02:29:30;10.45;;;6.25;;
57848;SDS011;68645;44.762;21.516;2023-04-24T02:31:57;6.97;;;5.95;;
57848;SDS011;68645;44.762;21.516;2023-04-24T02:34:23;9.60;;;7.75;;
57848;SDS011;68645;44.762;21.516;2023-04-24T02:36:49;9.02;;;5.88;;
57848;SDS011;68645;44.762;21.516;2023-04-24T02:39:15;10.13;;;6.05;;
57848;SDS011;68645;44.762;21.516;2023-04-24T02:41:45;7.20;;;5.82;;
57848;SDS011;68645;44.762;21.516;2023-04-24T02:44:11;8.93;;;5.90;;
57848;SDS011;68645;44.762;21.516;2023-04-24T02:46:37;10.15;;;5.85;;
57848;SDS011;68645;44.762;21.516;2023-04-24T02:49:03;7.60;;;6.18;;
57848;SDS011;68645;44.762;21.516;2023-04-24T02:51:29;7.38;;;5.70;;
57848;SDS011;68645;44.762;21.516;2023-04-24T02:53:56;7.70;;;5.68;;
57848;SDS011;68645;44.762;21.516;2023-04-24T02:56:22;10.05;;;6.28;;
57848;SDS011;68645;44.762;21.516;2023-04-24T02:58:48;9.75;;;6.97;;
57848;SDS011;68645;44.762;21.516;2023-04-24T03:01:14;9.70;;;6.40;;
57848;SDS011;68645;44.762;21.516;2023-04-24T03:03:40;9.70;;;6.07;;
57848;SDS011;68645;44.762;21.516;2023-04-24T03:06:06;10.38;;;5.82;;
57848;SDS011;68645;44.762;21.516;2023-04-24T03:08:33;8.60;;;6.00;;
57848;SDS011;68645;44.762;21.516;2023-04-24T03:10:59;8.05;;;5.93;;
57848;SDS011;68645;44.762;21.516;2023-04-24T03:13:25;8.77;;;5.88;;
57848;SDS011;68645;44.762;21.516;2023-04-24T03:15:51;8.55;;;6.47;;
57848;SDS011;68645;44.762;21.516;2023-04-24T03:18:19;11.80;;;7.72;;
57848;SDS011;68645;44.762;21.516;2023-04-24T03:20:45;9.40;;;6.85;;
57848;SDS011;68645;44.762;21.516;2023-04-24T03:23:12;14.50;;;7.43;;
57848;SDS011;68645;44.762;21.516;2023-04-24T03:25:38;12.88;;;8.13;;
57848;SDS011;68645;44.762;21.516;2023-04-24T03:28:05;12.80;;;8.05;;
57848;SDS011;68645;44.762;21.516;2023-04-24T03:30:32;15.00;;;8.65;;
57848;SDS011;68645;44.762;21.516;2023-04-24T03:32:58;15.88;;;8.40;;
57848;SDS011;68645;44.762;21.516;2023-04-24T03:35:24;14.30;;;8.40;;
57848;SDS011;68645;44.762;21.516;2023-04-24T03:37:50;20.17;;;9.50;;
57848;SDS011;68645;44.762;21.516;2023-04-24T03:40:16;17.05;;;9.38;;
57848;SDS011;68645;44.762;21.516;2023-04-24T03:42:43;12.77;;;7.45;;
57848;SDS011;68645;44.762;21.516;2023-04-24T03:45:09;11.70;;;6.80;;
57848;SDS011;68645;44.762;21.516;2023-04-24T03:47:35;10.63;;;6.50;;
57848;SDS011;68645;44.762;21.516;2023-04-24T03:50:01;8.55;;;5.88;;
57848;SDS011;68645;44.762;21.516;2023-04-24T03:52:27;9.45;;;6.25;;
57848;SDS011;68645;44.762;21.516;2023-04-24T03:54:54;13.93;;;7.65;;
57848;SDS011;68645;44.762;21.516;2023-04-24T03:57:20;8.25;;;6.25;;
57848;SDS011;68645;44.762;21.516;2023-04-24T03:59:47;11.13;;;5.78;;
57848;SDS011;68645;44.762;21.516;2023-04-24T04:02:13;9.23;;;6.70;;
57848;SDS011;68645;44.762;21.516;2023-04-24T04:04:39;12.75;;;7.10;;
57848;SDS011;68645;44.762;21.516;2023-04-24T04:07:05;16.80;;;8.07;;
57848;SDS011;68645;44.762;21.516;2023-04-24T04:09:32;12.43;;;7.40;;
57848;SDS011;68645;44.762;21.516;2023-04-24T04:11:58;12.20;;;6.80;;
57848;SDS011;68645;44.762;21.516;2023-04-24T04:14:25;10.52;;;7.35;;
57848;SDS011;68645;44.762;21.516;2023-04-24T04:16:52;12.40;;;6.95;;
57848;SDS011;68645;44.762;21.516;2023-04-24T04:19:18;11.30;;;6.15;;
57848;SDS011;68645;44.762;21.516;2023-04-24T04:21:44;8.07;;;5.63;;
57848;SDS011;68645;44.762;21.516;2023-04-24T04:24:11;9.73;;;6.22;;
57848;SDS011;68645;44.762;21.516;2023-04-24T04:26:37;9.13;;;6.45;;
57848;SDS011;68645;44.762;21.516;2023-04-24T04:29:04;10.80;;;6.82;;
57848;SDS011;68645;44.762;21.516;2023-04-24T04:31:31;12.90;;;7.25;;
57848;SDS011;68645;44.762;21.516;2023-04-24T04:33:57;10.80;;;6.43;;
57848;SDS011;68645;44.762;21.516;2023-04-24T04:36:24;11.13;;;7.00;;
57848;SDS011;68645;44.762;21.516;2023-04-24T04:38:51;11.13;;;7.20;;
57848;SDS011;68645;44.762;21.516;2023-04-24T04:41:17;8.75;;;6.78;;
57848;SDS011;68645;44.762;21.516;2023-04-24T04:43:43;9.40;;;6.18;;
57848;SDS011;68645;44.762;21.516;2023-04-24T04:46:09;9.95;;;6.80;;
57848;SDS011;68645;44.762;21.516;2023-04-24T04:48:36;11.35;;;6.63;;
57848;SDS011;68645;44.762;21.516;2023-04-24T04:51:03;10.25;;;6.95;;
57848;SDS011;68645;44.762;21.516;2023-04-24T04:53:29;9.75;;;7.07;;
57848;SDS011;68645;44.762;21.516;2023-04-24T04:55:55;14.70;;;8.77;;
57848;SDS011;68645;44.762;21.516;2023-04-24T04:58:21;9.68;;;6.50;;
57848;SDS011;68645;44.762;21.516;2023-04-24T05:00:48;11.93;;;6.60;;
57848;SDS011;68645;44.762;21.516;2023-04-24T05:03:14;10.80;;;7.60;;
57848;SDS011;68645;44.762;21.516;2023-04-24T05:05:40;12.63;;;7.28;;
57848;SDS011;68645;44.762;21.516;2023-04-24T05:08:07;8.88;;;6.28;;
57848;SDS011;68645;44.762;21.516;2023-04-24T05:10:33;9.63;;;6.00;;
57848;SDS011;68645;44.762;21.516;2023-04-24T05:13:01;8.80;;;5.85;;
57848;SDS011;68645;44.762;21.516;2023-04-24T05:15:28;10.10;;;6.35;;
57848;SDS011;68645;44.762;21.516;2023-04-24T05:17:55;11.93;;;6.05;;
57848;SDS011;68645;44.762;21.516;2023-04-24T05:20:21;8.82;;;5.68;;
57848;SDS011;68645;44.762;21.516;2023-04-24T05:22:47;8.35;;;5.80;;
57848;SDS011;68645;44.762;21.516;2023-04-24T05:25:14;12.90;;;8.25;;
57848;SDS011;68645;44.762;21.516;2023-04-24T05:27:40;14.00;;;8.40;;
57848;SDS011;68645;44.762;21.516;2023-04-24T05:30:06;15.55;;;8.75;;
57848;SDS011;68645;44.762;21.516;2023-04-24T05:32:32;13.00;;;7.50;;
57848;SDS011;68645;44.762;21.516;2023-04-24T05:34:59;15.13;;;7.95;;
57848;SDS011;68645;44.762;21.516;2023-04-24T05:37:25;14.38;;;8.02;;
57848;SDS011;68645;44.762;21.516;2023-04-24T05:39:51;11.23;;;7.25;;
57848;SDS011;68645;44.762;21.516;2023-04-24T05:42:17;12.55;;;7.82;;
57848;SDS011;68645;44.762;21.516;2023-04-24T05:44:43;10.18;;;6.75;;
57848;SDS011;68645;44.762;21.516;2023-04-24T05:47:10;9.63;;;6.60;;
57848;SDS011;68645;44.762;21.516;2023-04-24T05:49:36;9.73;;;6.97;;
57848;SDS011;68645;44.762;21.516;2023-04-24T05:52:02;10.55;;;7.07;;
57848;SDS011;68645;44.762;21.516;2023-04-24T05:54:30;9.57;;;6.93;;
57848;SDS011;68645;44.762;21.516;2023-04-24T05:56:56;9.73;;;6.20;;
57848;SDS011;68645;44.762;21.516;2023-04-24T05:59:23;13.43;;;6.95;;
57848;SDS011;68645;44.762;21.516;2023-04-24T06:01:49;12.05;;;7.68;;
57848;SDS011;68645;44.762;21.516;2023-04-24T06:04:15;20.25;;;12.18;;
57848;SDS011;68645;44.762;21.516;2023-04-24T06:06:41;17.98;;;11.35;;
57848;SDS011;68645;44.762;21.516;2023-04-24T06:09:08;13.77;;;8.80;;
57848;SDS011;68645;44.762;21.516;2023-04-24T06:11:34;13.00;;;8.75;;
57848;SDS011;68645;44.762;21.516;2023-04-24T06:14:00;11.40;;;6.32;;
57848;SDS011;68645;44.762;21.516;2023-04-24T06:16:27;10.68;;;7.30;;
57848;SDS011;68645;44.762;21.516;2023-04-24T06:18:53;11.88;;;7.72;;
57848;SDS011;68645;44.762;21.516;2023-04-24T06:21:20;11.05;;;6.85;;
57848;SDS011;68645;44.762;21.516;2023-04-24T06:23:46;14.55;;;8.48;;
57848;SDS011;68645;44.762;21.516;2023-04-24T06:26:12;10.23;;;7.60;;
57848;SDS011;68645;44.762;21.516;2023-04-24T06:28:38;13.30;;;9.95;;
57848;SDS011;68645;44.762;21.516;2023-04-24T06:31:04;10.18;;;7.70;;
57848;SDS011;68645;44.762;21.516;2023-04-24T06:33:30;13.82;;;8.57;;
57848;SDS011;68645;44.762;21.516;2023-04-24T06:35:56;14.20;;;10.02;;
57848;SDS011;68645;44.762;21.516;2023-04-24T06:38:23;12.18;;;8.55;;
57848;SDS011;68645;44.762;21.516;2023-04-24T06:40:49;12.25;;;8.18;;
57848;SDS011;68645;44.762;21.516;2023-04-24T06:43:15;14.02;;;9.98;;
57848;SDS011;68645;44.762;21.516;2023-04-24T06:45:41;12.70;;;9.30;;
57848;SDS011;68645;44.762;21.516;2023-04-24T06:48:08;18.42;;;12.45;;
57848;SDS011;68645;44.762;21.516;2023-04-24T06:50:35;11.25;;;9.20;;
57848;SDS011;68645;44.762;21.516;2023-04-24T06:53:01;13.95;;;7.40;;
57848;SDS011;68645;44.762;21.516;2023-04-24T06:55:29;11.45;;;8.23;;
57848;SDS011;68645;44.762;21.516;2023-04-24T06:57:55;14.50;;;8.65;;
57848;SDS011;68645;44.762;21.516;2023-04-24T07:00:22;13.73;;;9.30;;
57848;SDS011;68645;44.762;21.516;2023-04-24T07:02:49;15.32;;;8.75;;
57848;SDS011;68645;44.762;21.516;2023-04-24T07:05:15;15.48;;;8.88;;
57848;SDS011;68645;44.762;21.516;2023-04-24T07:07:45;15.95;;;8.05;;
57848;SDS011;68645;44.762;21.516;2023-04-24T07:10:11;11.75;;;8.40;;
57848;SDS011;68645;44.762;21.516;2023-04-24T07:12:38;11.80;;;7.70;;
57848;SDS011;68645;44.762;21.516;2023-04-24T07:15:05;11.02;;;8.55;;
57848;SDS011;68645;44.762;21.516;2023-04-24T07:17:31;10.30;;;7.85;;
57848;SDS011;68645;44.762;21.516;2023-04-24T07:19:57;13.32;;;9.82;;
57848;SDS011;68645;44.762;21.516;2023-04-24T07:22:23;15.40;;;9.25;;
57848;SDS011;68645;44.762;21.516;2023-04-24T07:24:49;11.93;;;9.23;;
57848;SDS011;68645;44.762;21.516;2023-04-24T07:27:16;15.65;;;11.40;;
57848;SDS011;68645;44.762;21.516;2023-04-24T07:29:42;14.02;;;9.93;;
57848;SDS011;68645;44.762;21.516;2023-04-24T07:32:08;15.63;;;10.35;;
57848;SDS011;68645;44.762;21.516;2023-04-24T07:34:34;16.67;;;10.98;;
57848;SDS011;68645;44.762;21.516;2023-04-24T07:37:01;15.73;;;11.23;;
57848;SDS011;68645;44.762;21.516;2023-04-24T07:39:28;12.35;;;9.85;;
57848;SDS011;68645;44.762;21.516;2023-04-24T07:41:54;13.35;;;11.20;;
57848;SDS011;68645;44.762;21.516;2023-04-24T07:44:20;13.95;;;11.90;;
57848;SDS011;68645;44.762;21.516;2023-04-24T07:46:46;18.52;;;13.25;;
57848;SDS011;68645;44.762;21.516;2023-04-24T07:49:12;13.80;;;10.98;;
57848;SDS011;68645;44.762;21.516;2023-04-24T07:51:39;13.38;;;10.15;;
57848;SDS011;68645;44.762;21.516;2023-04-24T07:54:06;12.23;;;9.13;;
57848;SDS011;68645;44.762;21.516;2023-04-24T07:56:32;12.02;;;9.80;;
57848;SDS011;68645;44.762;21.516;2023-04-24T07:58:59;13.15;;;9.82;;
57848;SDS011;68645;44.762;21.516;2023-04-24T08:01:26;14.15;;;11.07;;
57848;SDS011;68645;44.762;21.516;2023-04-24T08:03:52;15.27;;;10.52;;
57848;SDS011;68645;44.762;21.516;2023-04-24T08:06:19;15.98;;;11.73;;
57848;SDS011;68645;44.762;21.516;2023-04-24T08:08:45;11.35;;;10.13;;
57848;SDS011;68645;44.762;21.516;2023-04-24T08:11:11;13.73;;;9.32;;
57848;SDS011;68645;44.762;21.516;2023-04-24T08:13:37;10.88;;;8.88;;
57848;SDS011;68645;44.762;21.516;2023-04-24T08:16:03;12.45;;;8.85;;
57848;SDS011;68645;44.762;21.516;2023-04-24T08:18:29;14.50;;;10.40;;
57848;SDS011;68645;44.762;21.516;2023-04-24T08:20:55;15.82;;;10.95;;
57848;SDS011;68645;44.762;21.516;2023-04-24T08:23:26;12.30;;;9.40;;
57848;SDS011;68645;44.762;21.516;2023-04-24T08:25:52;9.98;;;8.80;;
57848;SDS011;68645;44.762;21.516;2023-04-24T08:28:18;12.40;;;9.07;;
57848;SDS011;68645;44.762;21.516;2023-04-24T08:30:45;12.13;;;8.27;;
57848;SDS011;68645;44.762;21.516;2023-04-24T08:33:23;11.15;;;9.27;;
57848;SDS011;68645;44.762;21.516;2023-04-24T08:35:49;9.93;;;8.82;;
57848;SDS011;68645;44.762;21.516;2023-04-24T08:38:15;14.57;;;9.90;;
57848;SDS011;68645;44.762;21.516;2023-04-24T08:40:42;15.77;;;12.20;;
57848;SDS011;68645;44.762;21.516;2023-04-24T08:43:10;14.95;;;13.05;;
57848;SDS011;68645;44.762;21.516;2023-04-24T08:45:38;14.00;;;12.23;;
57848;SDS011;68645;44.762;21.516;2023-04-24T08:48:05;18.23;;;13.07;;
57848;SDS011;68645;44.762;21.516;2023-04-24T08:50:31;10.93;;;8.90;;
57848;SDS011;68645;44.762;21.516;2023-04-24T08:52:58;12.77;;;8.57;;
57848;SDS011;68645;44.762;21.516;2023-04-24T08:55:24;12.75;;;8.85;;
57848;SDS011;68645;44.762;21.516;2023-04-24T08:57:51;14.63;;;10.23;;
57848;SDS011;68645;44.762;21.516;2023-04-24T09:00:18;12.02;;;8.98;;
57848;SDS011;68645;44.762;21.516;2023-04-24T09:02:45;11.80;;;8.23;;
57848;SDS011;68645;44.762;21.516;2023-04-24T09:05:12;13.32;;;9.30;;
57848;SDS011;68645;44.762;21.516;2023-04-24T09:07:39;14.07;;;9.05;;
57848;SDS011;68645;44.762;21.516;2023-04-24T09:10:07;12.57;;;9.25;;
57848;SDS011;68645;44.762;21.516;2023-04-24T09:12:34;12.00;;;9.20;;
57848;SDS011;68645;44.762;21.516;2023-04-24T09:15:00;10.75;;;8.18;;
57848;SDS011;68645;44.762;21.516;2023-04-24T09:17:30;16.00;;;9.23;;
57848;SDS011;68645;44.762;21.516;2023-04-24T09:19:56;12.05;;;9.13;;
57848;SDS011;68645;44.762;21.516;2023-04-24T09:22:22;11.02;;;8.95;;
57848;SDS011;68645;44.762;21.516;2023-04-24T09:24:48;15.18;;;9.80;;
57848;SDS011;68645;44.762;21.516;2023-04-24T09:27:27;15.30;;;10.55;;
57848;SDS011;68645;44.762;21.516;2023-04-24T09:29:54;15.63;;;8.68;;
57848;SDS011;68645;44.762;21.516;2023-04-24T09:32:21;9.27;;;7.72;;
57848;SDS011;68645;44.762;21.516;2023-04-24T09:34:47;11.02;;;8.32;;
57848;SDS011;68645;44.762;21.516;2023-04-24T09:37:29;10.50;;;8.80;;
57848;SDS011;68645;44.762;21.516;2023-04-24T09:42:43;9.23;;;8.18;;
57848;SDS011;68645;44.762;21.516;2023-04-24T09:45:10;10.95;;;8.05;;
57848;SDS011;68645;44.762;21.516;2023-04-24T09:47:37;8.70;;;7.25;;
57848;SDS011;68645;44.762;21.516;2023-04-24T09:50:10;8.57;;;7.28;;
57848;SDS011;68645;44.762;21.516;2023-04-24T09:52:39;8.10;;;7.03;;
57848;SDS011;68645;44.762;21.516;2023-04-24T09:55:20;10.90;;;8.02;;
57848;SDS011;68645;44.762;21.516;2023-04-24T09:57:46;9.18;;;6.97;;
57848;SDS011;68645;44.762;21.516;2023-04-24T10:00:13;9.23;;;7.50;;
57848;SDS011;68645;44.762;21.516;2023-04-24T10:02:39;10.90;;;7.38;;
57848;SDS011;68645;44.762;21.516;2023-04-24T10:05:05;8.48;;;6.32;;
57848;SDS011;68645;44.762;21.516;2023-04-24T10:07:32;9.93;;;7.15;;
57848;SDS011;68645;44.762;21.516;2023-04-24T10:09:58;10.50;;;6.65;;
57848;SDS011;68645;44.762;21.516;2023-04-24T10:12:25;11.77;;;7.07;;
57848;SDS011;68645;44.762;21.516;2023-04-24T10:14:52;10.60;;;7.75;;
57848;SDS011;68645;44.762;21.516;2023-04-24T10:17:19;9.73;;;6.88;;
57848;SDS011;68645;44.762;21.516;2023-04-24T10:19:46;8.57;;;6.32;;
57848;SDS011;68645;44.762;21.516;2023-04-24T10:22:13;10.95;;;7.32;;
57848;SDS011;68645;44.762;21.516;2023-04-24T10:24:41;10.15;;;7.18;;
57848;SDS011;68645;44.762;21.516;2023-04-24T10:27:08;9.98;;;7.03;;
57848;SDS011;68645;44.762;21.516;2023-04-24T10:29:35;8.27;;;6.43;;
57848;SDS011;68645;44.762;21.516;2023-04-24T10:32:01;7.72;;;5.47;;
57848;SDS011;68645;44.762;21.516;2023-04-24T10:34:27;9.90;;;6.63;;
57848;SDS011;68645;44.762;21.516;2023-04-24T10:36:54;11.20;;;5.93;;
57848;SDS011;68645;44.762;21.516;2023-04-24T10:39:21;9.75;;;6.63;;
57848;SDS011;68645;44.762;21.516;2023-04-24T10:41:48;11.05;;;7.35;;
57848;SDS011;68645;44.762;21.516;2023-04-24T10:44:15;7.97;;;6.35;;
57848;SDS011;68645;44.762;21.516;2023-04-24T10:46:45;11.27;;;7.18;;
57848;SDS011;68645;44.762;21.516;2023-04-24T10:49:15;14.07;;;7.57;;
57848;SDS011;68645;44.762;21.516;2023-04-24T10:54:23;7.03;;;5.85;;
57848;SDS011;68645;44.762;21.516;2023-04-24T10:56:50;7.40;;;6.18;;
57848;SDS011;68645;44.762;21.516;2023-04-24T10:59:34;9.05;;;6.78;;
57848;SDS011;68645;44.762;21.516;2023-04-24T11:02:02;9.45;;;7.45;;
57848;SDS011;68645;44.762;21.516;2023-04-24T11:04:32;9.15;;;6.32;;
57848;SDS011;68645;44.762;21.516;2023-04-24T11:06:59;10.10;;;8.38;;
57848;SDS011;68645;44.762;21.516;2023-04-24T11:09:28;14.00;;;8.15;;
57848;SDS011;68645;44.762;21.516;2023-04-24T11:12:04;12.63;;;9.02;;
57848;SDS011;68645;44.762;21.516;2023-04-24T11:17:37;21.23;;;18.15;;
57848;SDS011;68645;44.762;21.516;2023-04-24T11:20:08;23.33;;;19.67;;
57848;SDS011;68645;44.762;21.516;2023-04-24T11:22:35;14.55;;;13.05;;
57848;SDS011;68645;44.762;21.516;2023-04-24T11:25:02;14.57;;;13.02;;
57848;SDS011;68645;44.762;21.516;2023-04-24T11:27:50;16.65;;;14.90;;
57848;SDS011;68645;44.762;21.516;2023-04-24T11:30:19;16.60;;;14.90;;
57848;SDS011;68645;44.762;21.516;2023-04-24T11:32:50;18.50;;;13.20;;
57848;SDS011;68645;44.762;21.516;2023-04-24T11:35:18;15.95;;;12.82;;
57848;SDS011;68645;44.762;21.516;2023-04-24T11:37:46;12.55;;;10.00;;
57848;SDS011;68645;44.762;21.516;2023-04-24T11:40:14;11.20;;;8.48;;
57848;SDS011;68645;44.762;21.516;2023-04-24T11:42:42;9.07;;;6.80;;
57848;SDS011;68645;44.762;21.516;2023-04-24T11:45:20;12.60;;;7.90;;
57848;SDS011;68645;44.762;21.516;2023-04-24T11:47:47;9.43;;;6.15;;
57848;SDS011;68645;44.762;21.516;2023-04-24T11:50:23;16.92;;;13.98;;
57848;SDS011;68645;44.762;21.516;2023-04-24T11:52:51;19.05;;;17.15;;
57848;SDS011;68645;44.762;21.516;2023-04-24T11:57:44;20.98;;;17.63;;
57848;SDS011;68645;44.762;21.516;2023-04-24T12:00:21;13.00;;;9.80;;
57848;SDS011;68645;44.762;21.516;2023-04-24T12:02:47;14.25;;;10.77;;
57848;SDS011;68645;44.762;21.516;2023-04-24T12:05:20;16.77;;;11.23;;
57848;SDS011;68645;44.762;21.516;2023-04-24T12:07:47;14.40;;;9.40;;
57848;SDS011;68645;44.762;21.516;2023-04-24T12:10:13;15.85;;;10.77;;
57848;SDS011;68645;44.762;21.516;2023-04-24T12:12:39;12.45;;;9.65;;
57848;SDS011;68645;44.762;21.516;2023-04-24T12:15:06;12.68;;;8.77;;
57848;SDS011;68645;44.762;21.516;2023-04-24T12:17:33;11.82;;;9.30;;
57848;SDS011;68645;44.762;21.516;2023-04-24T12:20:00;14.43;;;10.35;;
57848;SDS011;68645;44.762;21.516;2023-04-24T12:22:27;13.95;;;9.88;;
57848;SDS011;68645;44.762;21.516;2023-04-24T12:24:57;15.35;;;8.75;;
57848;SDS011;68645;44.762;21.516;2023-04-24T12:27:24;11.63;;;8.70;;
57848;SDS011;68645;44.762;21.516;2023-04-24T12:29:55;10.95;;;8.13;;
57848;SDS011;68645;44.762;21.516;2023-04-24T12:34:49;12.93;;;8.65;;
57848;SDS011;68645;44.762;21.516;2023-04-24T12:37:16;12.27;;;9.13;;
57848;SDS011;68645;44.762;21.516;2023-04-24T12:42:25;11.10;;;8.65;;
57848;SDS011;68645;44.762;21.516;2023-04-24T12:44:55;10.45;;;8.80;;
57848;SDS011;68645;44.762;21.516;2023-04-24T12:47:23;9.10;;;7.00;;
57848;SDS011;68645;44.762;21.516;2023-04-24T12:49:50;12.75;;;7.88;;
57848;SDS011;68645;44.762;21.516;2023-04-24T12:52:18;9.15;;;7.50;;
57848;SDS011;68645;44.762;21.516;2023-04-24T12:54:45;8.85;;;7.38;;
57848;SDS011;68645;44.762;21.516;2023-04-24T12:57:11;7.72;;;6.82;;
57848;SDS011;68645;44.762;21.516;2023-04-24T12:59:37;8.30;;;6.25;;
57848;SDS011;68645;44.762;21.516;2023-04-24T13:02:04;8.00;;;6.30;;
57848;SDS011;68645;44.762;21.516;2023-04-24T13:04:30;8.43;;;6.70;;
57848;SDS011;68645;44.762;21.516;2023-04-24T13:06:57;7.65;;;6.85;;
57848;SDS011;68645;44.762;21.516;2023-04-24T13:09:23;9.10;;;6.65;;
57848;SDS011;68645;44.762;21.516;2023-04-24T13:11:49;6.13;;;5.18;;
57848;SDS011;68645;44.762;21.516;2023-04-24T13:14:16;9.32;;;6.22;;
57848;SDS011;68645;44.762;21.516;2023-04-24T13:16:42;8.27;;;6.30;;
57848;SDS011;68645;44.762;21.516;2023-04-24T13:19:08;8.07;;;6.55;;
57848;SDS011;68645;44.762;21.516;2023-04-24T13:21:34;7.95;;;6.00;;
57848;SDS011;68645;44.762;21.516;2023-04-24T13:24:00;8.82;;;7.10;;
57848;SDS011;68645;44.762;21.516;2023-04-24T13:26:26;12.90;;;7.38;;
57848;SDS011;68645;44.762;21.516;2023-04-24T13:28:52;30.27;;;27.17;;
57848;SDS011;68645;44.762;21.516;2023-04-24T13:31:19;17.90;;;14.60;;
57848;SDS011;68645;44.762;21.516;2023-04-24T13:33:45;32.63;;;29.08;;
57848;SDS011;68645;44.762;21.516;2023-04-24T13:36:11;23.33;;;21.00;;
57848;SDS011;68645;44.762;21.516;2023-04-24T13:38:37;18.40;;;15.90;;
57848;SDS011;68645;44.762;21.516;2023-04-24T13:41:03;24.45;;;21.95;;
57848;SDS011;68645;44.762;21.516;2023-04-24T13:43:29;28.08;;;25.30;;
57848;SDS011;68645;44.762;21.516;2023-04-24T13:45:55;24.67;;;19.20;;
57848;SDS011;68645;44.762;21.516;2023-04-24T13:48:24;15.98;;;13.25;;
57848;SDS011;68645;44.762;21.516;2023-04-24T13:50:50;19.13;;;15.23;;
57848;SDS011;68645;44.762;21.516;2023-04-24T13:53:16;22.23;;;18.40;;
57848;SDS011;68645;44.762;21.516;2023-04-24T13:55:42;20.00;;;17.58;;
57848;SDS011;68645;44.762;21.516;2023-04-24T13:58:08;27.70;;;23.05;;
57848;SDS011;68645;44.762;21.516;2023-04-24T14:00:35;55.95;;;50.13;;
57848;SDS011;68645;44.762;21.516;2023-04-24T14:03:01;22.23;;;18.20;;
57848;SDS011;68645;44.762;21.516;2023-04-24T14:05:27;18.40;;;14.07;;
57848;SDS011;68645;44.762;21.516;2023-04-24T14:07:53;20.88;;;14.10;;
57848;SDS011;68645;44.762;21.516;2023-04-24T14:10:20;18.92;;;14.68;;
57848;SDS011;68645;44.762;21.516;2023-04-24T14:12:46;21.27;;;15.65;;
57848;SDS011;68645;44.762;21.516;2023-04-24T14:15:13;22.13;;;16.85;;
57848;SDS011;68645;44.762;21.516;2023-04-24T14:17:39;21.10;;;16.63;;
57848;SDS011;68645;44.762;21.516;2023-04-24T14:20:05;23.27;;;17.08;;
57848;SDS011;68645;44.762;21.516;2023-04-24T14:22:32;23.55;;;17.98;;
57848;SDS011;68645;44.762;21.516;2023-04-24T14:24:58;27.55;;;18.88;;
57848;SDS011;68645;44.762;21.516;2023-04-24T14:27:25;27.80;;;20.23;;
57848;SDS011;68645;44.762;21.516;2023-04-24T14:29:51;30.27;;;22.30;;
57848;SDS011;68645;44.762;21.516;2023-04-24T14:32:18;39.25;;;26.55;;
57848;SDS011;68645;44.762;21.516;2023-04-24T14:34:44;39.22;;;27.60;;
57848;SDS011;68645;44.762;21.516;2023-04-24T14:37:10;41.28;;;29.33;;
57848;SDS011;68645;44.762;21.516;2023-04-24T14:39:36;70.05;;;47.30;;